Weather History for Warrenton, VA

Change the Weather History Date:

Friday, May 3, 2013

  Actual Average (KHEF) Record (KHEF)
Temperature  
Mean Temperature 56 °F -  
Max Temperature 71 °F 70 °F 87 °F (2001)
Min Temperature 41 °F 46 °F 33 °F (2005)
Degree Days  
Heating Degree Days 9    
Growing Degree Days 6 (Base 50)    
Moisture  
Dew Point 47 °F    
Average Humidity 78    
Maximum Humidity 100    
Minimum Humidity 45    
Precipitation  
Precipitation 0.00 in - - ()
Sea Level Pressure  
Sea Level Pressure 30.32 in    
Wind  
Wind Speed 3 mph (ENE)    
Max Wind Speed 14 mph    
Max Gust Speed 20 mph    
Visibility 8 miles    
Events Fog    
Averages and records for this station are not official NWS values.
T = Trace of Precipitation, MM = Missing Value Source: NWS Daily Summary

Daily Weather History Graph

Daily Weather History Graph

Search for Another Location

Airport:

Trip Planner

Search our weather history database for the weather conditions in past years. The results will help you decide how hot, cold, wet, or windy it might be!

Date:

Astronomy

May. 03, 2013 Rise Set
Actual Time 6:11 AM EDT 8:04 PM EDT
Civil Twilight 5:42 AM EDT 8:33 PM EDT
Nautical Twilight 5:07 AM EDT 9:08 PM EDT
Astronomical Twilight 4:29 AM EDT 9:46 PM EDT
Moon 2:29 AM EDT (5/3) 2:01 PM EDT (5/3)
Length of Visible Light 14h 51m
Length of Day
13h 53m
Last Quarter, 37% of the Moon is Illuminated
May 3
Last Quarter
May 9
New
May 18
First Quarter
May 25
Full
May 31
Last Quarter

Hourly Weather History & Observations

Time (EDT) Temp. Windchill Dew Point Humidity Pressure Visibility Wind Dir Wind Speed Gust Speed Precip Events Conditions
12:15 AM 45.7 °F - 45.7 °F 100% 30.32 in 5.0 mi Calm Calm - N/A   Clear
12:35 AM 44.1 °F - 44.1 °F 100% 30.32 in 1.0 mi Calm Calm - N/A   Mist
12:55 AM 43.5 °F - 43.5 °F 100% 30.31 in 2.5 mi Calm Calm - N/A   Clear
1:15 AM 44.8 °F - 44.8 °F 100% 30.31 in 1.2 mi Calm Calm - N/A   Mist
1:35 AM 43.7 °F - 43.7 °F 100% 30.30 in 5.0 mi Calm Calm - N/A   Clear
1:55 AM 42.6 °F - 42.6 °F 100% 30.30 in 0.5 mi Calm Calm - N/A Fog Fog
2:15 AM 43.0 °F - 43.0 °F 100% 30.30 in 0.5 mi Calm Calm - N/A Fog Fog
2:35 AM 42.3 °F - 42.3 °F 100% 30.29 in 0.2 mi Calm Calm - N/A Fog Fog
2:55 AM 41.9 °F - 41.9 °F 100% 30.29 in 0.2 mi Calm Calm - N/A Fog Fog
3:15 AM 42.6 °F - 42.6 °F 100% 30.28 in 0.5 mi Calm Calm - N/A Fog Fog
3:35 AM 42.8 °F - 42.8 °F 100% 30.29 in 0.2 mi Calm Calm - N/A Fog Fog
3:55 AM 42.4 °F - 42.4 °F 100% 30.30 in 2.0 mi Calm Calm - N/A   Clear
4:15 AM 42.3 °F - 42.3 °F 100% 30.30 in 7.0 mi Calm Calm - N/A   Clear
4:35 AM 43.2 °F - 43.2 °F 100% 30.30 in 5.0 mi Calm Calm - N/A   Clear
4:55 AM 41.0 °F - 41.0 °F 100% 30.31 in 7.0 mi Calm Calm - N/A   Clear
5:15 AM 44.1 °F - 44.1 °F 100% 30.31 in 5.0 mi Calm Calm - N/A   Clear
5:35 AM 44.6 °F - 44.6 °F 100% 30.32 in 10.0 mi Calm Calm - N/A   Clear
5:55 AM 45.5 °F 44.2 °F 45.5 °F 100% 30.33 in 10.0 mi NNE 3.5 mph - N/A   Scattered Clouds
6:15 AM 45.1 °F 42.8 °F 45.1 °F 100% 30.33 in 7.0 mi NNE 4.6 mph - N/A   Scattered Clouds
6:35 AM 42.4 °F - 42.4 °F 100% 30.33 in 2.5 mi Calm Calm - N/A   Clear
6:55 AM 45.5 °F - 45.5 °F 100% 30.34 in 10.0 mi Calm Calm - N/A   Clear
7:15 AM 46.9 °F - 46.9 °F 100% 30.35 in 10.0 mi NE 3.5 mph - N/A   Mostly Cloudy
7:35 AM 48.2 °F - 48.2 °F 100% 30.36 in 10.0 mi NNE 3.5 mph - N/A   Overcast
7:55 AM 49.1 °F - 49.1 °F 100% 30.36 in 10.0 mi Calm Calm - N/A   Overcast
8:15 AM 50.9 °F - 50.9 °F 100% 30.36 in 10.0 mi Calm Calm - N/A   Overcast
8:35 AM 53.1 °F - 53.1 °F 100% 30.37 in 10.0 mi NNE 4.6 mph - N/A   Overcast
8:55 AM 54.9 °F - 54.7 °F 99% 30.37 in 10.0 mi ENE 5.8 mph - N/A   Overcast
9:15 AM 56.3 °F - 54.9 °F 95% 30.37 in 10.0 mi ENE 5.8 mph - N/A   Mostly Cloudy
9:35 AM 58.3 °F - 55.2 °F 90% 30.37 in 10.0 mi ENE 6.9 mph - N/A   Scattered Clouds
9:55 AM 59.9 °F - 55.0 °F 84% 30.37 in 10.0 mi East 8.1 mph - N/A   Scattered Clouds
10:15 AM 60.8 °F - 54.3 °F 79% 30.37 in 10.0 mi East 5.8 mph - N/A   Scattered Clouds
10:35 AM 61.3 °F - 54.9 °F 79% 30.37 in 10.0 mi NE 5.8 mph - N/A   Scattered Clouds
10:55 AM 63.3 °F - 54.9 °F 74% 30.37 in 10.0 mi ENE 9.2 mph 16.1 mph N/A   Scattered Clouds
11:15 AM 64.9 °F - 54.1 °F 68% 30.37 in 10.0 mi East 9.2 mph - N/A   Scattered Clouds
11:35 AM 65.1 °F - 52.5 °F 64% 30.37 in 10.0 mi ENE 6.9 mph - N/A   Scattered Clouds
11:55 AM 66.2 °F - 52.2 °F 61% 30.36 in 10.0 mi ENE 8.1 mph - N/A   Scattered Clouds
12:15 PM 67.3 °F - 52.3 °F 59% 30.36 in 10.0 mi East 10.4 mph - N/A   Scattered Clouds
12:35 PM 66.9 °F - 50.9 °F 56% 30.35 in 10.0 mi NE 6.9 mph - N/A   Scattered Clouds
12:55 PM 68.7 °F - 52.7 °F 57% 30.34 in 10.0 mi ENE 11.5 mph - N/A   Clear
1:15 PM 68.9 °F - 51.3 °F 53% 30.33 in 10.0 mi East 4.6 mph - N/A   Clear
1:35 PM 69.3 °F - 50.9 °F 52% 30.33 in 10.0 mi ENE 3.5 mph - N/A   Clear
1:55 PM 69.8 °F - 51.3 °F 52% 30.32 in 10.0 mi ENE 5.8 mph - N/A   Clear
2:15 PM 70.0 °F - 51.4 °F 52% 30.31 in 10.0 mi East 6.9 mph - N/A   Clear
2:35 PM 71.1 °F - 52.0 °F 51% 30.31 in 10.0 mi East 10.4 mph 16.1 mph N/A   Clear
2:55 PM 70.9 °F - 50.5 °F 48% 30.30 in 10.0 mi East 10.4 mph - N/A   Clear
3:15 PM 71.4 °F - 50.7 °F 48% 30.29 in 10.0 mi East 10.4 mph 16.1 mph N/A   Clear
3:35 PM 71.2 °F - 48.7 °F 45% 30.29 in 10.0 mi ENE 8.1 mph 18.4 mph N/A   Clear
3:55 PM 70.7 °F - 48.6 °F 45% 30.28 in 10.0 mi East 11.5 mph 19.6 mph N/A   Clear
4:15 PM 70.9 °F - 48.9 °F 46% 30.28 in 10.0 mi East 13.8 mph 19.6 mph N/A   Clear
4:35 PM 69.8 °F - 48.6 °F 47% 30.28 in 10.0 mi East 12.7 mph 19.6 mph N/A   Clear
5:15 PM 67.5 °F - 48.6 °F 51% 30.28 in 10.0 mi East 11.5 mph - N/A   Clear
5:35 PM 66.7 °F - 47.3 °F 50% 30.28 in 10.0 mi East 10.4 mph - N/A   Clear
5:55 PM 65.3 °F - 44.4 °F 47% 30.28 in 10.0 mi ENE 10.4 mph 16.1 mph N/A   Clear
6:15 PM 64.6 °F - 45.7 °F 50% 30.29 in 10.0 mi East 9.2 mph 16.1 mph N/A   Clear
6:35 PM 63.7 °F - 46.2 °F 53% 30.29 in 10.0 mi East 10.4 mph - N/A   Clear
6:55 PM 63.0 °F - 46.2 °F 54% 30.30 in 10.0 mi East 12.7 mph - N/A   Clear
7:15 PM 61.5 °F - 45.5 °F 56% 30.31 in 10.0 mi ENE 10.4 mph - N/A   Clear
7:35 PM 59.9 °F - 45.5 °F 59% 30.31 in 10.0 mi ENE 9.2 mph - N/A   Clear
7:55 PM 58.3 °F - 45.3 °F 62% 30.32 in 10.0 mi East 8.1 mph - N/A   Clear
8:15 PM 56.5 °F - 45.5 °F 67% 30.32 in 10.0 mi East 5.8 mph - N/A   Clear
8:35 PM 54.9 °F - 45.3 °F 70% 30.32 in 10.0 mi ENE 4.6 mph - N/A   Clear
8:55 PM 54.0 °F - 45.1 °F 72% 30.32 in 10.0 mi ENE 4.6 mph - N/A   Clear
9:15 PM 52.7 °F - 45.0 °F 75% 30.33 in 10.0 mi East 4.6 mph - N/A   Clear
9:35 PM 52.9 °F - 44.8 °F 74% 30.33 in 10.0 mi East 4.6 mph - N/A   Clear
9:55 PM 50.7 °F - 44.2 °F 78% 30.34 in 10.0 mi East 4.6 mph - N/A   Clear
10:15 PM 50.5 °F - 43.9 °F 78% 30.35 in 10.0 mi East 3.5 mph - N/A   Clear
10:35 PM 50.7 °F - 44.4 °F 79% 30.34 in 10.0 mi Calm Calm - N/A   Clear
10:55 PM 50.2 °F - 44.1 °F 79% 30.34 in 10.0 mi Calm Calm - N/A   Clear
11:15 PM 45.3 °F - 43.3 °F 93% 30.34 in 10.0 mi Calm Calm - N/A   Clear
11:35 PM 43.7 °F - 42.8 °F 97% 30.33 in 10.0 mi Calm Calm - N/A   Clear
11:55 PM 43.0 °F - 42.8 °F 99% 30.33 in 10.0 mi Calm Calm - N/A   Clear